sensor_id;sensor_type;location;lat;lon;timestamp;pressure;altitude;pressure_sealevel;temperature;humidity
52651;BME280;38537;47.226;39.702;2023-08-01T00:02:54;99914.84;;;24.72;48.13
52651;BME280;38537;47.226;39.702;2023-08-01T00:05:21;99918.94;;;24.71;48.18
52651;BME280;38537;47.226;39.702;2023-08-01T00:07:49;99906.75;;;24.59;48.27
52651;BME280;38537;47.226;39.702;2023-08-01T00:10:16;99901.88;;;24.53;48.73
52651;BME280;38537;47.226;39.702;2023-08-01T00:12:45;99904.34;;;24.54;48.47
52651;BME280;38537;47.226;39.702;2023-08-01T00:15:13;99905.13;;;24.58;48.33
52651;BME280;38537;47.226;39.702;2023-08-01T00:17:41;99890.47;;;24.53;48.42
52651;BME280;38537;47.226;39.702;2023-08-01T00:20:09;99906.75;;;24.59;48.64
52651;BME280;38537;47.226;39.702;2023-08-01T00:22:36;99918.16;;;24.67;48.56
52651;BME280;38537;47.226;39.702;2023-08-01T00:25:04;99914.44;;;24.70;48.35
52651;BME280;38537;47.226;39.702;2023-08-01T00:27:31;99907.50;;;24.71;48.51
52651;BME280;38537;47.226;39.702;2023-08-01T00:30:07;99887.59;;;24.60;48.50
52651;BME280;38537;47.226;39.702;2023-08-01T00:32:36;99900.63;;;24.65;48.22
52651;BME280;38537;47.226;39.702;2023-08-01T00:35:04;99899.00;;;24.64;48.16
52651;BME280;38537;47.226;39.702;2023-08-01T00:37:33;99909.53;;;24.74;48.44
52651;BME280;38537;47.226;39.702;2023-08-01T00:40:00;99899.41;;;24.66;48.36
52651;BME280;38537;47.226;39.702;2023-08-01T00:42:29;99877.44;;;24.48;48.19
52651;BME280;38537;47.226;39.702;2023-08-01T00:44:56;99906.75;;;24.59;48.59
52651;BME280;38537;47.226;39.702;2023-08-01T00:47:24;99898.22;;;24.49;48.49
52651;BME280;38537;47.226;39.702;2023-08-01T00:49:51;99916.19;;;24.49;48.69
52651;BME280;38537;47.226;39.702;2023-08-01T00:52:19;99892.59;;;24.35;48.94
52651;BME280;38537;47.226;39.702;2023-08-01T00:54:46;99916.63;;;24.44;49.26
52651;BME280;38537;47.226;39.702;2023-08-01T00:57:14;99911.72;;;24.45;48.60
52651;BME280;38537;47.226;39.702;2023-08-01T00:59:41;99884.47;;;24.22;49.32
52651;BME280;38537;47.226;39.702;2023-08-01T01:02:08;99902.78;;;24.36;48.83
52651;BME280;38537;47.226;39.702;2023-08-01T01:04:36;99915.00;;;24.43;48.73
52651;BME280;38537;47.226;39.702;2023-08-01T01:07:06;99899.13;;;24.32;49.13
52651;BME280;38537;47.226;39.702;2023-08-01T01:09:34;99921.94;;;24.39;48.90
52651;BME280;38537;47.226;39.702;2023-08-01T01:12:01;99902.81;;;24.25;49.00
52651;BME280;38537;47.226;39.702;2023-08-01T01:14:28;99918.28;;;24.38;48.75
52651;BME280;38537;47.226;39.702;2023-08-01T01:16:56;99908.50;;;24.32;49.14
52651;BME280;38537;47.226;39.702;2023-08-01T01:19:24;99897.91;;;24.29;48.45
52651;BME280;38537;47.226;39.702;2023-08-01T01:21:51;99889.78;;;24.24;48.49
52651;BME280;38537;47.226;39.702;2023-08-01T01:24:39;99919.91;;;24.39;49.16
52651;BME280;38537;47.226;39.702;2023-08-01T01:27:08;99922.34;;;24.41;48.83
52651;BME280;38537;47.226;39.702;2023-08-01T01:29:37;99910.13;;;24.33;48.88
52651;BME280;38537;47.226;39.702;2023-08-01T01:32:05;99917.47;;;24.31;48.62
52651;BME280;38537;47.226;39.702;2023-08-01T01:34:33;99907.28;;;24.22;49.06
52651;BME280;38537;47.226;39.702;2023-08-01T01:37:01;99914.22;;;24.18;49.28
52651;BME280;38537;47.226;39.702;2023-08-01T01:39:28;99909.75;;;24.13;49.24
52651;BME280;38537;47.226;39.702;2023-08-01T01:41:55;99877.59;;;23.95;49.65
52651;BME280;38537;47.226;39.702;2023-08-01T01:44:23;99897.13;;;24.04;49.39
52651;BME280;38537;47.226;39.702;2023-08-01T01:46:50;99910.97;;;24.09;49.46
52651;BME280;38537;47.226;39.702;2023-08-01T01:49:17;99908.56;;;24.00;49.39
52651;BME280;38537;47.226;39.702;2023-08-01T01:51:45;99908.16;;;24.02;49.65
52651;BME280;38537;47.226;39.702;2023-08-01T01:54:12;99887.78;;;23.92;49.59
52651;BME280;38537;47.226;39.702;2023-08-01T01:56:40;99878.41;;;23.85;49.68
52651;BME280;38537;47.226;39.702;2023-08-01T01:59:07;99899.59;;;24.02;49.63
52651;BME280;38537;47.226;39.702;2023-08-01T02:01:35;99890.63;;;23.96;49.88
52651;BME280;38537;47.226;39.702;2023-08-01T02:04:02;99885.75;;;23.97;49.51
52651;BME280;38537;47.226;39.702;2023-08-01T02:06:29;99891.44;;;24.00;49.55
52651;BME280;38537;47.226;39.702;2023-08-01T02:08:58;99873.53;;;23.85;49.83
52651;BME280;38537;47.226;39.702;2023-08-01T02:11:29;99880.88;;;23.93;49.53
52651;BME280;38537;47.226;39.702;2023-08-01T02:13:57;99883.72;;;23.93;49.53
52651;BME280;38537;47.226;39.702;2023-08-01T02:16:25;99880.88;;;23.90;49.20
52651;BME280;38537;47.226;39.702;2023-08-01T02:18:52;99884.53;;;23.94;49.70
52651;BME280;38537;47.226;39.702;2023-08-01T02:21:19;99882.50;;;23.95;49.28
52651;BME280;38537;47.226;39.702;2023-08-01T02:23:47;99899.56;;;24.05;49.31
52651;BME280;38537;47.226;39.702;2023-08-01T02:26:14;99905.69;;;24.07;49.07
52651;BME280;38537;47.226;39.702;2023-08-01T02:28:41;99893.91;;;24.02;48.92
52651;BME280;38537;47.226;39.702;2023-08-01T02:31:09;99891.44;;;24.00;48.94
52651;BME280;38537;47.226;39.702;2023-08-01T02:33:36;99903.22;;;24.09;48.63
52651;BME280;38537;47.226;39.702;2023-08-01T02:36:03;99910.56;;;24.07;49.08
52651;BME280;38537;47.226;39.702;2023-08-01T02:38:31;99904.88;;;24.07;48.62
52651;BME280;38537;47.226;39.702;2023-08-01T02:41:00;99887.78;;;23.96;48.59
52651;BME280;38537;47.226;39.702;2023-08-01T02:43:28;99893.47;;;24.03;48.12
52651;BME280;38537;47.226;39.702;2023-08-01T02:45:55;99905.25;;;24.09;48.23
52651;BME280;38537;47.226;39.702;2023-08-01T02:48:25;99900.38;;;24.13;48.38
52651;BME280;38537;47.226;39.702;2023-08-01T02:50:52;99906.06;;;24.16;47.72
52651;BME280;38537;47.226;39.702;2023-08-01T02:53:20;99911.75;;;24.27;48.08
52651;BME280;38537;47.226;39.702;2023-08-01T02:55:50;99907.69;;;24.32;47.70
52651;BME280;38537;47.226;39.702;2023-08-01T02:58:18;99897.09;;;24.25;47.56
52651;BME280;38537;47.226;39.702;2023-08-01T03:00:48;99919.06;;;24.42;47.14
52651;BME280;38537;47.226;39.702;2023-08-01T03:03:25;99904.00;;;24.35;47.18
52651;BME280;38537;47.226;39.702;2023-08-01T03:06:10;99909.25;;;24.50;46.99
52651;BME280;38537;47.226;39.702;2023-08-01T03:08:37;99840.88;;;24.11;46.89
52651;BME280;38537;47.226;39.702;2023-08-01T03:11:05;99909.22;;;24.57;46.65
52651;BME280;38537;47.226;39.702;2023-08-01T03:13:33;99909.59;;;24.67;46.53
52651;BME280;38537;47.226;39.702;2023-08-01T03:16:00;99938.91;;;24.81;46.72
52651;BME280;38537;47.226;39.702;2023-08-01T03:18:28;99906.28;;;24.75;46.12
52651;BME280;38537;47.226;39.702;2023-08-01T03:20:55;99921.28;;;24.97;45.30
52651;BME280;38537;47.226;39.702;2023-08-01T03:23:23;99910.25;;;24.92;45.21
52651;BME280;38537;47.226;39.702;2023-08-01T03:25:54;99922.88;;;25.09;45.74
52651;BME280;38537;47.226;39.702;2023-08-01T03:28:21;99902.50;;;25.00;45.47
52651;BME280;38537;47.226;39.702;2023-08-01T03:30:49;99896.75;;;25.07;44.78
52651;BME280;38537;47.226;39.702;2023-08-01T03:33:17;99919.88;;;25.26;44.65
52651;BME280;38537;47.226;39.702;2023-08-01T03:35:45;99899.94;;;25.16;43.63
52651;BME280;38537;47.226;39.702;2023-08-01T03:38:12;99905.59;;;25.26;43.70
52651;BME280;38537;47.226;39.702;2023-08-01T03:40:40;99915.22;;;25.47;44.00
52651;BME280;38537;47.226;39.702;2023-08-01T03:43:08;99913.50;;;25.56;43.58
52651;BME280;38537;47.226;39.702;2023-08-01T03:45:36;99910.19;;;25.61;43.38
52651;BME280;38537;47.226;39.702;2023-08-01T03:48:04;99905.72;;;25.64;42.64
52651;BME280;38537;47.226;39.702;2023-08-01T03:50:32;99908.59;;;25.64;42.09
52651;BME280;38537;47.226;39.702;2023-08-01T03:52:59;99915.78;;;25.79;42.75
52651;BME280;38537;47.226;39.702;2023-08-01T03:55:27;99901.91;;;25.78;42.30
52651;BME280;38537;47.226;39.702;2023-08-01T03:57:54;99897.88;;;25.75;41.67
52651;BME280;38537;47.226;39.702;2023-08-01T04:00:22;99914.84;;;25.93;41.74
52651;BME280;38537;47.226;39.702;2023-08-01T04:02:50;99898.41;;;26.01;41.45
52651;BME280;38537;47.226;39.702;2023-08-01T04:05:18;99886.63;;;25.95;41.48
52651;BME280;38537;47.226;39.702;2023-08-01T04:07:45;99888.66;;;25.98;40.88
52651;BME280;38537;47.226;39.702;2023-08-01T04:10:13;99906.03;;;26.18;41.31
52651;BME280;38537;47.226;39.702;2023-08-01T04:12:40;99899.06;;;26.19;40.99
52651;BME280;38537;47.226;39.702;2023-08-01T04:15:09;99899.78;;;26.26;41.15
52651;BME280;38537;47.226;39.702;2023-08-01T04:17:36;99897.72;;;26.31;40.88
52651;BME280;38537;47.226;39.702;2023-08-01T04:20:05;99909.81;;;26.45;40.74
52651;BME280;38537;47.226;39.702;2023-08-01T04:22:32;99908.53;;;26.50;40.93
52651;BME280;38537;47.226;39.702;2023-08-01T04:25:01;99911.34;;;26.53;40.61
52651;BME280;38537;47.226;39.702;2023-08-01T04:27:34;99905.16;;;26.58;40.66
52651;BME280;38537;47.226;39.702;2023-08-01T04:30:01;99890.44;;;26.56;40.91
52651;BME280;38537;47.226;39.702;2023-08-01T04:32:35;99891.25;;;26.57;40.46
52651;BME280;38537;47.226;39.702;2023-08-01T04:35:04;99905.13;;;26.62;40.58
52651;BME280;38537;47.226;39.702;2023-08-01T04:37:33;99907.06;;;26.69;40.81
52651;BME280;38537;47.226;39.702;2023-08-01T04:40:04;99910.66;;;26.76;40.74
52651;BME280;38537;47.226;39.702;2023-08-01T04:42:33;99908.59;;;26.77;40.82
52651;BME280;38537;47.226;39.702;2023-08-01T04:45:05;99920.25;;;26.93;41.20
52651;BME280;38537;47.226;39.702;2023-08-01T04:47:34;99903.03;;;26.93;40.83
52651;BME280;38537;47.226;39.702;2023-08-01T04:50:02;99908.66;;;27.04;40.83
52651;BME280;38537;47.226;39.702;2023-08-01T04:52:31;99897.50;;;27.09;40.97
52651;BME280;38537;47.226;39.702;2023-08-01T04:54:58;99908.88;;;27.16;40.69
52651;BME280;38537;47.226;39.702;2023-08-01T04:57:25;99929.16;;;27.29;40.66
52651;BME280;38537;47.226;39.702;2023-08-01T04:59:53;99917.75;;;27.25;40.59
52651;BME280;38537;47.226;39.702;2023-08-01T05:02:20;99923.81;;;27.31;40.70
52651;BME280;38537;47.226;39.702;2023-08-01T05:04:49;99907.41;;;27.31;40.83
52651;BME280;38537;47.226;39.702;2023-08-01T05:07:21;99915.44;;;27.44;40.59
52651;BME280;38537;47.226;39.702;2023-08-01T05:09:50;99916.53;;;27.50;40.83
52651;BME280;38537;47.226;39.702;2023-08-01T05:12:17;99911.56;;;27.54;40.82
52651;BME280;38537;47.226;39.702;2023-08-01T05:14:45;99911.84;;;27.63;40.68
52651;BME280;38537;47.226;39.702;2023-08-01T05:17:12;99903.63;;;27.65;40.65
52651;BME280;38537;47.226;39.702;2023-08-01T05:19:40;99873.97;;;27.48;40.53
52651;BME280;38537;47.226;39.702;2023-08-01T05:22:11;99876.84;;;27.48;40.66
52651;BME280;38537;47.226;39.702;2023-08-01T05:24:38;99892.16;;;27.65;40.41
52651;BME280;38537;47.226;39.702;2023-08-01T05:27:06;99897.47;;;27.67;40.82
52651;BME280;38537;47.226;39.702;2023-08-01T05:29:36;99919.72;;;27.82;40.64
52651;BME280;38537;47.226;39.702;2023-08-01T05:32:06;99928.06;;;27.96;40.88
52651;BME280;38537;47.226;39.702;2023-08-01T05:34:34;99900.38;;;27.86;40.75
52651;BME280;38537;47.226;39.702;2023-08-01T05:37:01;99909.09;;;28.03;40.80
52651;BME280;38537;47.226;39.702;2023-08-01T05:39:29;99842.56;;;27.64;40.84
52651;BME280;38537;47.226;39.702;2023-08-01T05:41:56;99923.94;;;28.21;40.74
52651;BME280;38537;47.226;39.702;2023-08-01T05:44:24;99909.19;;;28.19;40.92
52651;BME280;38537;47.226;39.702;2023-08-01T05:46:51;99914.03;;;28.25;41.03
52651;BME280;38537;47.226;39.702;2023-08-01T05:49:18;99915.75;;;28.19;40.81
52651;BME280;38537;47.226;39.702;2023-08-01T05:51:46;99906.72;;;28.21;41.19
52651;BME280;38537;47.226;39.702;2023-08-01T05:54:13;99915.41;;;28.37;40.93
52651;BME280;38537;47.226;39.702;2023-08-01T05:56:41;99927.53;;;28.48;41.24
52651;BME280;38537;47.226;39.702;2023-08-01T05:59:09;99919.47;;;28.40;41.30
52651;BME280;38537;47.226;39.702;2023-08-01T06:01:37;99920.16;;;28.47;41.03
52651;BME280;38537;47.226;39.702;2023-08-01T06:04:07;99915.16;;;28.51;41.42
52651;BME280;38537;47.226;39.702;2023-08-01T06:06:35;99900.41;;;28.49;41.08
52651;BME280;38537;47.226;39.702;2023-08-01T06:09:02;99915.09;;;28.55;40.94
52651;BME280;38537;47.226;39.702;2023-08-01T06:11:29;99918.22;;;28.60;40.95
52651;BME280;38537;47.226;39.702;2023-08-01T06:13:56;99927.91;;;28.70;41.19
52651;BME280;38537;47.226;39.702;2023-08-01T06:16:24;99920.91;;;28.71;41.22
52651;BME280;38537;47.226;39.702;2023-08-01T06:18:54;99914.69;;;28.73;41.44
52651;BME280;38537;47.226;39.702;2023-08-01T06:21:23;99923.13;;;28.83;41.72
52651;BME280;38537;47.226;39.702;2023-08-01T06:23:51;99941.84;;;28.91;41.44
52651;BME280;38537;47.226;39.702;2023-08-01T06:26:19;99940.59;;;28.92;41.75
52651;BME280;38537;47.226;39.702;2023-08-01T06:28:46;99933.94;;;28.95;41.79
52651;BME280;38537;47.226;39.702;2023-08-01T06:31:14;99938.72;;;29.02;41.56
52651;BME280;38537;47.226;39.702;2023-08-01T06:33:41;99942.63;;;29.12;41.09
52651;BME280;38537;47.226;39.702;2023-08-01T06:36:09;99949.03;;;29.19;41.56
52651;BME280;38537;47.226;39.702;2023-08-01T06:38:36;99947.41;;;29.18;41.56
52651;BME280;38537;47.226;39.702;2023-08-01T06:41:03;99946.50;;;29.21;41.09
52651;BME280;38537;47.226;39.702;2023-08-01T06:43:34;99951.63;;;29.30;41.54
52651;BME280;38537;47.226;39.702;2023-08-01T06:46:01;99946.06;;;29.23;41.82
52651;BME280;38537;47.226;39.702;2023-08-01T06:48:28;99930.66;;;29.13;41.69
52651;BME280;38537;47.226;39.702;2023-08-01T06:50:57;99948.84;;;29.26;41.46
52651;BME280;38537;47.226;39.702;2023-08-01T06:53:24;99940.31;;;29.23;41.81
52651;BME280;38537;47.226;39.702;2023-08-01T06:55:52;99945.06;;;29.29;41.75
52651;BME280;38537;47.226;39.702;2023-08-01T06:58:20;99940.06;;;29.33;41.79
52651;BME280;38537;47.226;39.702;2023-08-01T07:00:47;99954.50;;;29.50;42.12
52651;BME280;38537;47.226;39.702;2023-08-01T07:03:14;99937.22;;;29.50;41.87
52651;BME280;38537;47.226;39.702;2023-08-01T07:05:42;99948.94;;;29.59;42.21
52651;BME280;38537;47.226;39.702;2023-08-01T07:08:09;99951.91;;;29.72;41.80
52651;BME280;38537;47.226;39.702;2023-08-01T07:10:37;99953.06;;;29.74;41.96
52651;BME280;38537;47.226;39.702;2023-08-01T07:13:04;99946.88;;;29.76;41.60
52651;BME280;38537;47.226;39.702;2023-08-01T07:15:34;99933.44;;;29.69;41.73
52651;BME280;38537;47.226;39.702;2023-08-01T07:18:01;99945.97;;;29.79;41.62
52651;BME280;38537;47.226;39.702;2023-08-01T07:20:30;99944.00;;;29.76;42.06
52651;BME280;38537;47.226;39.702;2023-08-01T07:22:57;99931.13;;;29.80;41.98
52651;BME280;38537;47.226;39.702;2023-08-01T07:25:24;99940.13;;;29.98;42.45
52651;BME280;38537;47.226;39.702;2023-08-01T07:27:52;99952.75;;;30.05;42.00
52651;BME280;38537;47.226;39.702;2023-08-01T07:30:19;99937.31;;;30.11;41.65
52651;BME280;38537;47.226;39.702;2023-08-01T07:32:46;99934.34;;;30.15;41.72
52651;BME280;38537;47.226;39.702;2023-08-01T07:35:14;99939.94;;;30.22;41.90
52651;BME280;38537;47.226;39.702;2023-08-01T07:37:42;99947.56;;;30.28;41.75
52651;BME280;38537;47.226;39.702;2023-08-01T07:40:09;99928.75;;;30.24;41.60
52651;BME280;38537;47.226;39.702;2023-08-01T07:42:37;99932.38;;;30.28;41.54
52651;BME280;38537;47.226;39.702;2023-08-01T07:45:05;99947.97;;;30.43;41.64
52651;BME280;38537;47.226;39.702;2023-08-01T07:47:33;99937.16;;;30.47;41.67
52651;BME280;38537;47.226;39.702;2023-08-01T07:50:00;99926.09;;;30.46;41.36
52651;BME280;38537;47.226;39.702;2023-08-01T07:52:30;99930.94;;;30.49;41.35
52651;BME280;38537;47.226;39.702;2023-08-01T07:54:58;99929.78;;;30.46;41.24
52651;BME280;38537;47.226;39.702;2023-08-01T07:57:26;99933.25;;;30.54;41.52
52651;BME280;38537;47.226;39.702;2023-08-01T07:59:53;99924.28;;;30.52;41.83
52651;BME280;38537;47.226;39.702;2023-08-01T08:02:21;99907.00;;;30.52;41.49
52651;BME280;38537;47.226;39.702;2023-08-01T08:04:48;99902.53;;;30.63;41.29
52651;BME280;38537;47.226;39.702;2023-08-01T08:07:15;99916.06;;;30.79;41.23
52651;BME280;38537;47.226;39.702;2023-08-01T08:09:42;99921.53;;;30.90;41.04
52651;BME280;38537;47.226;39.702;2023-08-01T08:12:12;99890.38;;;30.85;40.61
52651;BME280;38537;47.226;39.702;2023-08-01T08:14:49;99891.88;;;30.89;40.60
52651;BME280;38537;47.226;39.702;2023-08-01T08:17:18;99815.78;;;30.45;40.60
52651;BME280;38537;47.226;39.702;2023-08-01T08:19:45;99905.03;;;31.03;40.32
52651;BME280;38537;47.226;39.702;2023-08-01T08:22:13;99885.09;;;30.96;40.36
52651;BME280;38537;47.226;39.702;2023-08-01T08:24:40;99894.78;;;31.02;40.30
52651;BME280;38537;47.226;39.702;2023-08-01T08:27:08;99897.19;;;31.03;40.20
52651;BME280;38537;47.226;39.702;2023-08-01T08:29:35;99909.38;;;31.11;40.26
52651;BME280;38537;47.226;39.702;2023-08-01T08:32:03;99909.91;;;31.06;40.30
52651;BME280;38537;47.226;39.702;2023-08-01T08:34:30;99900.78;;;31.08;40.74
52651;BME280;38537;47.226;39.702;2023-08-01T08:36:57;99886.81;;;30.93;40.32
52651;BME280;38537;47.226;39.702;2023-08-01T08:39:25;99894.88;;;30.98;40.41
52651;BME280;38537;47.226;39.702;2023-08-01T08:41:53;99895.69;;;30.99;40.57
52651;BME280;38537;47.226;39.702;2023-08-01T08:44:20;99901.59;;;31.08;40.56
52651;BME280;38537;47.226;39.702;2023-08-01T08:46:52;99887.38;;;31.01;40.31
52651;BME280;38537;47.226;39.702;2023-08-01T08:49:20;99893.66;;;31.12;40.94
52651;BME280;38537;47.226;39.702;2023-08-01T08:51:49;99892.75;;;31.15;40.50
52651;BME280;38537;47.226;39.702;2023-08-01T08:54:17;99875.63;;;31.08;40.54
52651;BME280;38537;47.226;39.702;2023-08-01T08:56:46;99876.91;;;31.20;40.45
52651;BME280;38537;47.226;39.702;2023-08-01T08:59:13;99886.41;;;31.33;40.62
52651;BME280;38537;47.226;39.702;2023-08-01T09:01:42;99881.31;;;31.37;39.64
52651;BME280;38537;47.226;39.702;2023-08-01T09:04:09;99859.63;;;31.32;40.04
52651;BME280;38537;47.226;39.702;2023-08-01T09:06:49;99867.34;;;31.48;40.78
52651;BME280;38537;47.226;39.702;2023-08-01T09:09:18;99871.59;;;31.56;40.92
52651;BME280;38537;47.226;39.702;2023-08-01T09:11:47;99869.72;;;31.62;40.29
52651;BME280;38537;47.226;39.702;2023-08-01T09:14:18;99865.47;;;31.67;40.31
52651;BME280;38537;47.226;39.702;2023-08-01T09:16:46;99858.06;;;31.79;40.33
52651;BME280;38537;47.226;39.702;2023-08-01T09:19:19;99878.94;;;31.95;39.91
52651;BME280;38537;47.226;39.702;2023-08-01T09:21:47;99875.81;;;32.02;40.56
52651;BME280;38537;47.226;39.702;2023-08-01T09:24:19;99838.75;;;31.88;39.90
52651;BME280;38537;47.226;39.702;2023-08-01T09:26:48;99870.09;;;32.12;39.26
52651;BME280;38537;47.226;39.702;2023-08-01T09:29:17;99860.72;;;32.08;39.34
52651;BME280;38537;47.226;39.702;2023-08-01T09:31:45;99851.59;;;32.09;39.21
52651;BME280;38537;47.226;39.702;2023-08-01T09:34:21;99864.44;;;32.21;39.08
52651;BME280;38537;47.226;39.702;2023-08-01T09:36:49;99857.31;;;32.34;39.90
52651;BME280;38537;47.226;39.702;2023-08-01T09:39:19;99868.72;;;32.38;39.70
52651;BME280;38537;47.226;39.702;2023-08-01T09:42:01;99861.41;;;32.46;38.64
52651;BME280;38537;47.226;39.702;2023-08-01T09:44:29;99834.72;;;32.42;38.71
52651;BME280;38537;47.226;39.702;2023-08-01T09:47:02;99856.28;;;32.50;37.93
52651;BME280;38537;47.226;39.702;2023-08-01T09:49:31;99837.97;;;32.44;38.26
52651;BME280;38537;47.226;39.702;2023-08-01T09:51:59;99828.47;;;32.44;37.75
52651;BME280;38537;47.226;39.702;2023-08-01T09:54:26;99845.06;;;32.52;37.89
52651;BME280;38537;47.226;39.702;2023-08-01T09:56:54;99826.25;;;32.26;36.37
52651;BME280;38537;47.226;39.702;2023-08-01T09:59:25;99821.41;;;32.23;36.66
52651;BME280;38537;47.226;39.702;2023-08-01T10:01:54;99821.81;;;32.34;36.89
52651;BME280;38537;47.226;39.702;2023-08-01T10:04:27;99823.38;;;32.26;34.04
52651;BME280;38537;47.226;39.702;2023-08-01T10:07:07;99808.25;;;32.22;34.69
52651;BME280;38537;47.226;39.702;2023-08-01T10:09:35;99819.81;;;32.44;35.00
52651;BME280;38537;47.226;39.702;2023-08-01T10:12:05;99818.88;;;32.47;35.16
52651;BME280;38537;47.226;39.702;2023-08-01T10:14:32;99804.06;;;32.45;35.52
52651;BME280;38537;47.226;39.702;2023-08-01T10:17:02;99797.81;;;32.46;33.84
52651;BME280;38537;47.226;39.702;2023-08-01T10:19:31;99812.84;;;32.63;34.21
52651;BME280;38537;47.226;39.702;2023-08-01T10:22:00;99809.81;;;32.66;34.37
52651;BME280;38537;47.226;39.702;2023-08-01T10:24:28;99800.50;;;32.71;34.18
52651;BME280;38537;47.226;39.702;2023-08-01T10:26:56;99814.78;;;32.88;34.91
52651;BME280;38537;47.226;39.702;2023-08-01T10:29:37;99809.16;;;32.93;33.53
52651;BME280;38537;47.226;39.702;2023-08-01T10:32:06;99814.47;;;32.95;34.25
52651;BME280;38537;47.226;39.702;2023-08-01T10:34:35;99810.81;;;33.03;34.36
52651;BME280;38537;47.226;39.702;2023-08-01T10:37:03;99810.38;;;33.14;33.31
52651;BME280;38537;47.226;39.702;2023-08-01T10:39:31;99809.56;;;33.14;33.74
52651;BME280;38537;47.226;39.702;2023-08-01T10:42:04;99802.81;;;33.17;33.02
52651;BME280;38537;47.226;39.702;2023-08-01T10:44:32;99808.41;;;33.42;33.82
52651;BME280;38537;47.226;39.702;2023-08-01T10:47:03;99805.50;;;33.33;33.48
52651;BME280;38537;47.226;39.702;2023-08-01T10:49:57;99800.19;;;33.41;31.33
52651;BME280;38537;47.226;39.702;2023-08-01T10:52:26;99804.03;;;33.37;31.08
52651;BME280;38537;47.226;39.702;2023-08-01T10:55:02;99780.88;;;33.37;32.07
52651;BME280;38537;47.226;39.702;2023-08-01T10:57:35;99799.72;;;33.42;31.00
52651;BME280;38537;47.226;39.702;2023-08-01T11:00:04;99799.91;;;33.48;31.33
52651;BME280;38537;47.226;39.702;2023-08-01T11:02:36;99782.53;;;33.48;31.06
52651;BME280;38537;47.226;39.702;2023-08-01T11:05:06;99783.19;;;33.52;30.16
52651;BME280;38537;47.226;39.702;2023-08-01T11:07:34;99782.84;;;33.59;30.89
52651;BME280;38537;47.226;39.702;2023-08-01T11:10:12;99789.94;;;33.67;31.53
52651;BME280;38537;47.226;39.702;2023-08-01T11:12:42;99774.63;;;33.57;30.95
52651;BME280;38537;47.226;39.702;2023-08-01T11:15:11;99764.53;;;33.53;31.02
52651;BME280;38537;47.226;39.702;2023-08-01T11:17:40;99784.81;;;33.71;31.27
52651;BME280;38537;47.226;39.702;2023-08-01T11:20:12;99770.97;;;33.66;30.58
52651;BME280;38537;47.226;39.702;2023-08-01T11:23:00;99785.97;;;33.83;31.36
52651;BME280;38537;47.226;39.702;2023-08-01T11:25:46;99761.00;;;33.76;30.82
52651;BME280;38537;47.226;39.702;2023-08-01T11:28:17;99765.03;;;33.79;30.69
52651;BME280;38537;47.226;39.702;2023-08-01T11:30:45;99764.25;;;33.87;30.65
52651;BME280;38537;47.226;39.702;2023-08-01T11:33:23;99769.72;;;33.94;29.73
52651;BME280;38537;47.226;39.702;2023-08-01T11:38:22;99765.19;;;33.84;29.88
52651;BME280;38537;47.226;39.702;2023-08-01T11:40:51;99751.03;;;33.86;30.50
52651;BME280;38537;47.226;39.702;2023-08-01T11:43:18;99752.34;;;33.94;30.76
52651;BME280;38537;47.226;39.702;2023-08-01T11:46:04;99759.72;;;34.04;30.49
52651;BME280;38537;47.226;39.702;2023-08-01T11:48:31;99756.69;;;33.99;31.11
52651;BME280;38537;47.226;39.702;2023-08-01T11:51:01;99766.00;;;34.12;31.49
52651;BME280;38537;47.226;39.702;2023-08-01T11:53:29;99755.53;;;34.15;30.28
52651;BME280;38537;47.226;39.702;2023-08-01T11:55:57;99747.16;;;34.17;30.65
52651;BME280;38537;47.226;39.702;2023-08-01T11:58:32;99747.78;;;34.21;30.01
52651;BME280;38537;47.226;39.702;2023-08-01T12:01:05;99737.19;;;34.09;28.90
52651;BME280;38537;47.226;39.702;2023-08-01T12:03:45;99746.00;;;34.23;29.40
52651;BME280;38537;47.226;39.702;2023-08-01T12:06:14;99747.44;;;34.28;27.89
52651;BME280;38537;47.226;39.702;2023-08-01T12:08:42;99738.78;;;34.19;28.27
52651;BME280;38537;47.226;39.702;2023-08-01T12:11:25;99747.00;;;34.20;27.78
52651;BME280;38537;47.226;39.702;2023-08-01T12:14:10;99740.69;;;34.22;27.70
52651;BME280;38537;47.226;39.702;2023-08-01T12:16:39;99740.72;;;34.31;28.55
52651;BME280;38537;47.226;39.702;2023-08-01T12:19:08;99731.69;;;34.29;29.13
52651;BME280;38537;47.226;39.702;2023-08-01T12:21:36;99733.78;;;34.37;28.14
52651;BME280;38537;47.226;39.702;2023-08-01T12:24:04;99723.78;;;34.38;29.26
52651;BME280;38537;47.226;39.702;2023-08-01T12:26:31;99727.00;;;34.41;28.18
52651;BME280;38537;47.226;39.702;2023-08-01T12:28:59;99713.97;;;34.36;29.48
52651;BME280;38537;47.226;39.702;2023-08-01T12:31:28;99723.75;;;34.48;28.96
52651;BME280;38537;47.226;39.702;2023-08-01T12:33:56;99722.28;;;34.52;29.15
52651;BME280;38537;47.226;39.702;2023-08-01T12:36:23;99730.75;;;34.65;29.10
52651;BME280;38537;47.226;39.702;2023-08-01T12:38:51;99721.94;;;34.59;28.56
52651;BME280;38537;47.226;39.702;2023-08-01T12:41:18;99726.75;;;34.62;27.49
52651;BME280;38537;47.226;39.702;2023-08-01T12:43:45;99731.94;;;34.58;27.78
52651;BME280;38537;47.226;39.702;2023-08-01T12:46:12;99720.34;;;34.49;27.41
52651;BME280;38537;47.226;39.702;2023-08-01T12:48:41;99723.88;;;34.53;27.97
52651;BME280;38537;47.226;39.702;2023-08-01T12:51:09;99719.22;;;34.56;28.11
52651;BME280;38537;47.226;39.702;2023-08-01T12:53:36;99715.69;;;34.52;28.16
52651;BME280;38537;47.226;39.702;2023-08-01T12:56:07;99694.31;;;34.40;28.30
52651;BME280;38537;47.226;39.702;2023-08-01T12:58:34;99713.75;;;34.49;28.19
52651;BME280;38537;47.226;39.702;2023-08-01T13:01:03;99682.84;;;34.27;27.76
52651;BME280;38537;47.226;39.702;2023-08-01T13:03:31;99704.94;;;34.34;27.84